createdAt,value
2019-02-06T00:00:47.067Z,0.00
2019-02-06T00:03:21.246Z,0.00
2019-02-06T00:05:51.651Z,0.10
2019-02-06T00:08:22.156Z,0.10
2019-02-06T00:10:52.565Z,0.10
2019-02-06T00:13:23.032Z,0.10
2019-02-06T00:15:53.626Z,0.10
2019-02-06T00:18:24.226Z,0.10
2019-02-06T00:20:54.582Z,0.10
2019-02-06T00:23:25.039Z,0.10
2019-02-06T00:25:55.529Z,0.10
2019-02-06T00:28:25.800Z,0.10
2019-02-06T00:30:56.129Z,0.10
2019-02-06T00:33:26.430Z,0.10
2019-02-06T00:35:56.756Z,0.10
2019-02-06T00:38:27.116Z,0.10
2019-02-06T00:40:57.452Z,0.10
2019-02-06T00:43:28.322Z,0.00
2019-02-06T00:45:59.088Z,0.10
2019-02-06T00:48:29.585Z,0.10
2019-02-06T00:50:59.852Z,0.20
2019-02-06T00:53:30.204Z,0.10
2019-02-06T00:56:00.491Z,0.10
2019-02-06T00:58:30.974Z,0.10
2019-02-06T01:01:01.243Z,0.10
2019-02-06T01:03:31.581Z,0.20
2019-02-06T01:06:02.183Z,0.20
2019-02-06T01:08:32.507Z,0.20
2019-02-06T01:11:03.514Z,0.20
2019-02-06T01:13:33.853Z,0.10
2019-02-06T01:16:04.468Z,0.10
2019-02-06T01:18:34.832Z,0.10
2019-02-06T01:21:05.181Z,0.10
2019-02-06T01:23:35.724Z,0.10
2019-02-06T01:26:06.404Z,0.10
2019-02-06T01:28:36.776Z,0.00
2019-02-06T01:31:15.561Z,0.00
2019-02-06T01:33:47.080Z,0.00
2019-02-06T01:36:19.194Z,0.00
2019-02-06T01:38:49.552Z,0.00
2019-02-06T01:41:19.836Z,0.00
2019-02-06T01:43:50.269Z,0.00
2019-02-06T01:46:20.692Z,0.00
2019-02-06T01:48:51.232Z,0.00
2019-02-06T01:51:21.964Z,-0.10
2019-02-06T01:53:52.403Z,-0.10
2019-02-06T01:56:22.662Z,-0.10
2019-02-06T01:58:53.011Z,-0.10
2019-02-06T02:01:23.321Z,-0.10
2019-02-06T02:03:53.662Z,0.00
2019-02-06T02:06:24.512Z,0.00
2019-02-06T02:09:01.903Z,0.00
2019-02-06T02:11:33.051Z,0.10
2019-02-06T02:14:03.326Z,0.10
2019-02-06T02:16:33.558Z,0.10
2019-02-06T02:19:04.322Z,0.10
2019-02-06T02:21:34.576Z,0.10
2019-02-06T02:24:04.875Z,0.10
2019-02-06T02:26:35.307Z,0.10
2019-02-06T02:29:05.729Z,0.10
2019-02-06T02:31:36.158Z,0.20
2019-02-06T02:34:06.697Z,0.20
2019-02-06T02:36:37.224Z,0.20
2019-02-06T02:39:08.171Z,0.30
2019-02-06T02:41:38.584Z,0.30
2019-02-06T02:44:08.981Z,0.30
2019-02-06T02:46:39.686Z,0.30
2019-02-06T02:49:10.046Z,0.30
2019-02-06T02:51:44.055Z,0.30
2019-02-06T02:54:12.756Z,0.30
2019-02-06T02:56:43.234Z,0.40
2019-02-06T02:59:13.781Z,0.40
2019-02-06T03:01:54.325Z,0.40
2019-02-06T03:04:33.823Z,0.50
2019-02-06T03:07:04.050Z,0.40
2019-02-06T03:09:34.423Z,0.40
2019-02-06T03:12:04.715Z,0.40
2019-02-06T03:14:34.998Z,0.40
2019-02-06T03:17:05.538Z,0.40
2019-02-06T03:19:35.866Z,0.50
2019-02-06T03:22:06.505Z,0.50
2019-02-06T03:24:38.253Z,0.50
2019-02-06T03:27:08.701Z,0.50
2019-02-06T03:29:39.109Z,0.50
2019-02-06T03:32:09.434Z,0.50
2019-02-06T03:34:39.887Z,0.50
2019-02-06T03:37:10.206Z,0.50
2019-02-06T03:39:40.546Z,0.50
2019-02-06T03:42:10.922Z,0.50
2019-02-06T03:44:41.347Z,0.50
2019-02-06T03:47:11.683Z,0.50
2019-02-06T03:49:42.765Z,0.50
2019-02-06T03:52:13.564Z,0.50
2019-02-06T03:54:43.900Z,0.50
2019-02-06T03:57:14.425Z,0.50
2019-02-06T03:59:44.727Z,0.60
2019-02-06T04:02:15.069Z,0.60
2019-02-06T04:04:45.488Z,0.50
2019-02-06T04:07:15.970Z,0.60
2019-02-06T04:09:46.553Z,0.60
2019-02-06T04:12:16.974Z,0.60
2019-02-06T04:14:47.314Z,0.60
2019-02-06T04:17:17.726Z,0.60
2019-02-06T04:19:48.257Z,0.60
2019-02-06T04:22:18.638Z,0.60
2019-02-06T04:24:51.533Z,0.60
2019-02-06T04:27:20.963Z,0.60
2019-02-06T04:29:51.213Z,0.60
2019-02-06T04:32:23.489Z,0.70
2019-02-06T04:34:53.795Z,0.60
2019-02-06T04:37:24.205Z,0.60
2019-02-06T04:39:54.962Z,0.60
2019-02-06T04:42:25.352Z,0.70
2019-02-06T04:44:55.897Z,0.70
2019-02-06T04:47:26.630Z,0.70
2019-02-06T04:49:57.171Z,0.70
2019-02-06T04:52:28.526Z,0.70
2019-02-06T04:54:58.836Z,0.70
2019-02-06T04:57:29.494Z,0.70
2019-02-06T04:59:59.793Z,0.70
2019-02-06T05:02:30.119Z,0.70
2019-02-06T05:05:00.534Z,0.70
2019-02-06T05:07:31.906Z,0.70
2019-02-06T05:10:02.272Z,0.70
2019-02-06T05:12:32.713Z,0.70
2019-02-06T05:15:03.491Z,0.70
2019-02-06T05:17:33.867Z,0.70
2019-02-06T05:20:09.877Z,0.70
2019-02-06T05:22:40.392Z,0.70
2019-02-06T05:25:10.714Z,0.80
2019-02-06T05:27:41.283Z,0.80
2019-02-06T05:30:12.021Z,0.70
2019-02-06T05:32:42.927Z,0.70
2019-02-06T05:35:13.785Z,0.70
2019-02-06T05:37:44.218Z,0.80
2019-02-06T05:40:14.706Z,0.80
2019-02-06T05:42:45.575Z,0.80
2019-02-06T05:45:16.086Z,0.80
2019-02-06T05:47:46.437Z,0.80
2019-02-06T05:50:17.146Z,0.80
2019-02-06T05:52:47.643Z,0.80
2019-02-06T05:55:18.074Z,0.80
2019-02-06T05:57:49.021Z,0.90
2019-02-06T06:00:23.881Z,0.90
2019-02-06T06:02:54.360Z,0.90
2019-02-06T06:05:24.799Z,0.90
2019-02-06T06:07:55.166Z,0.80
2019-02-06T06:10:26.055Z,0.80
2019-02-06T06:12:56.453Z,0.80
2019-02-06T06:15:27.804Z,0.80
2019-02-06T06:17:58.233Z,0.80
2019-02-06T06:20:28.712Z,0.90
2019-02-06T06:22:59.066Z,0.90
2019-02-06T06:25:29.810Z,0.80
2019-02-06T06:28:00.712Z,0.90
2019-02-06T06:30:31.204Z,0.90
2019-02-06T06:33:01.589Z,0.90
2019-02-06T06:35:32.082Z,0.90
2019-02-06T06:38:03.013Z,0.90
2019-02-06T06:40:33.529Z,0.90
2019-02-06T06:43:03.852Z,0.90
2019-02-06T06:45:34.342Z,0.90
2019-02-06T06:48:04.704Z,1.00
2019-02-06T06:50:35.220Z,1.00
2019-02-06T06:53:05.941Z,1.00
2019-02-06T06:55:36.332Z,1.00
2019-02-06T06:58:06.880Z,1.00
2019-02-06T07:00:37.275Z,1.00
2019-02-06T07:03:07.664Z,1.10
2019-02-06T07:05:38.664Z,1.10
2019-02-06T07:08:13.252Z,1.10
2019-02-06T07:10:41.208Z,1.10
2019-02-06T07:13:13.481Z,1.20
2019-02-06T07:15:43.927Z,1.20
2019-02-06T07:18:14.388Z,1.30
2019-02-06T07:20:45.086Z,1.30
2019-02-06T07:23:15.536Z,1.40
2019-02-06T07:25:45.934Z,1.50
2019-02-06T07:28:16.261Z,1.50
2019-02-06T07:30:46.500Z,1.50
2019-02-06T07:33:17.855Z,1.60
2019-02-06T07:35:48.322Z,1.70
2019-02-06T07:38:24.481Z,1.70
2019-02-06T07:40:50.738Z,1.80
2019-02-06T07:43:21.144Z,1.80
2019-02-06T07:45:51.727Z,1.90
2019-02-06T07:48:22.482Z,2.00
2019-02-06T07:50:52.936Z,2.10
2019-02-06T07:53:23.253Z,2.10
2019-02-06T07:55:53.618Z,2.30
2019-02-06T07:58:24.036Z,2.20
2019-02-06T08:00:54.572Z,2.30
2019-02-06T08:03:24.894Z,2.40
2019-02-06T08:05:55.285Z,2.40
2019-02-06T08:08:35.624Z,2.50
2019-02-06T08:10:57.664Z,2.60
2019-02-06T08:13:28.063Z,2.60
2019-02-06T08:15:59.024Z,2.70
2019-02-06T08:18:30.419Z,2.80
2019-02-06T08:21:00.810Z,2.90
2019-02-06T08:23:31.357Z,3.00
2019-02-06T08:26:01.920Z,3.00
2019-02-06T08:28:32.427Z,3.00
2019-02-06T08:31:02.891Z,2.90
2019-02-06T08:33:33.266Z,3.00
2019-02-06T08:36:04.183Z,3.00
2019-02-06T08:38:34.645Z,3.00
2019-02-06T08:41:05.572Z,3.00
2019-02-06T08:43:36.363Z,3.10
2019-02-06T08:46:06.802Z,3.20
2019-02-06T08:48:37.343Z,3.30
2019-02-06T08:51:07.836Z,3.30
2019-02-06T08:53:38.186Z,3.30
2019-02-06T08:56:08.693Z,3.40
2019-02-06T08:58:39.143Z,3.50
2019-02-06T09:01:09.662Z,3.50
2019-02-06T09:03:40.135Z,3.50
2019-02-06T09:06:10.583Z,3.50
2019-02-06T09:08:41.083Z,3.50
2019-02-06T09:11:11.522Z,3.60
2019-02-06T09:13:41.994Z,3.40
2019-02-06T09:16:12.407Z,3.50
2019-02-06T09:18:42.879Z,3.40
2019-02-06T09:21:13.325Z,3.60
2019-02-06T09:23:43.772Z,3.50
2019-02-06T09:26:14.400Z,3.40
2019-02-06T09:28:44.885Z,3.30
2019-02-06T09:31:15.363Z,3.50
2019-02-06T09:33:45.827Z,3.60
2019-02-06T09:36:16.253Z,3.50
2019-02-06T09:38:46.768Z,3.60
2019-02-06T09:41:17.283Z,3.60
2019-02-06T09:43:47.741Z,3.70
2019-02-06T09:46:18.207Z,3.80
2019-02-06T09:48:48.741Z,3.90
2019-02-06T09:51:19.432Z,4.00
2019-02-06T09:53:50.344Z,4.10
2019-02-06T09:56:20.780Z,4.20
2019-02-06T09:58:51.483Z,4.20
2019-02-06T10:01:21.895Z,4.20
2019-02-06T10:03:52.353Z,4.30
2019-02-06T10:06:22.794Z,4.20
2019-02-06T10:08:53.375Z,4.30
2019-02-06T10:11:23.695Z,4.40
2019-02-06T10:13:54.136Z,4.40
2019-02-06T10:16:24.557Z,4.50
2019-02-06T10:18:54.926Z,4.50
2019-02-06T10:21:25.343Z,4.50
2019-02-06T10:23:55.693Z,4.70
2019-02-06T10:26:26.184Z,4.70
2019-02-06T10:28:56.541Z,4.70
2019-02-06T10:31:27.102Z,4.80
2019-02-06T10:33:57.456Z,4.50
2019-02-06T10:36:28.304Z,4.50
2019-02-06T10:38:58.703Z,4.40
2019-02-06T10:41:29.253Z,4.30
2019-02-06T10:43:59.572Z,4.40
2019-02-06T10:46:29.879Z,4.30
2019-02-06T10:49:00.249Z,4.30
2019-02-06T10:51:30.686Z,4.40
2019-02-06T10:54:01.202Z,4.30
2019-02-06T10:56:31.543Z,4.40
2019-02-06T10:59:01.935Z,4.40
2019-02-06T11:01:32.353Z,4.40
2019-02-06T11:04:03.169Z,4.40
2019-02-06T11:06:33.669Z,4.80
2019-02-06T11:09:05.531Z,4.90
2019-02-06T11:11:35.906Z,4.90
2019-02-06T11:14:06.479Z,5.00
2019-02-06T11:16:36.853Z,5.00
2019-02-06T11:19:07.495Z,5.30
2019-02-06T11:21:38.027Z,5.30
2019-02-06T11:24:08.677Z,5.40
2019-02-06T11:26:39.553Z,5.20
2019-02-06T11:29:09.953Z,5.00
2019-02-06T11:31:40.787Z,4.90
2019-02-06T11:34:11.190Z,4.80
2019-02-06T11:36:41.618Z,4.90
2019-02-06T11:39:18.566Z,4.90
2019-02-06T11:41:49.029Z,4.90
2019-02-06T11:44:19.803Z,4.90
2019-02-06T11:46:50.367Z,4.70
2019-02-06T11:49:25.277Z,4.70
2019-02-06T11:51:55.690Z,4.70
2019-02-06T11:54:26.168Z,4.70
2019-02-06T11:56:56.958Z,4.70
2019-02-06T11:59:27.454Z,4.60
2019-02-06T12:01:58.005Z,4.50
2019-02-06T12:04:28.483Z,4.40
2019-02-06T12:06:58.901Z,4.50
2019-02-06T12:09:29.300Z,4.40
2019-02-06T12:12:00.174Z,4.30
2019-02-06T12:14:30.622Z,4.40
2019-02-06T12:17:01.070Z,4.30
2019-02-06T12:19:31.538Z,4.30
2019-02-06T12:22:01.907Z,4.10
2019-02-06T12:24:32.361Z,4.30
2019-02-06T12:27:02.797Z,4.30
2019-02-06T12:29:33.300Z,4.40
2019-02-06T12:32:03.822Z,4.70
2019-02-06T12:34:34.339Z,4.70
2019-02-06T12:37:05.335Z,4.70
2019-02-06T12:39:35.857Z,4.80
2019-02-06T12:42:06.335Z,4.90
2019-02-06T12:44:36.843Z,4.80
2019-02-06T12:47:07.221Z,4.70
2019-02-06T12:49:37.539Z,4.60
2019-02-06T12:52:07.999Z,4.50
2019-02-06T12:54:38.464Z,4.60
2019-02-06T12:57:09.027Z,4.50
2019-02-06T12:59:39.396Z,4.30
2019-02-06T13:02:09.908Z,4.20
2019-02-06T13:04:40.160Z,4.10
2019-02-06T13:07:10.534Z,4.20
2019-02-06T13:09:40.976Z,4.20
2019-02-06T13:12:11.532Z,4.20
2019-02-06T13:14:41.905Z,4.10
2019-02-06T13:17:12.367Z,4.10
2019-02-06T13:19:42.818Z,4.20
2019-02-06T13:22:13.214Z,4.20
2019-02-06T13:24:43.642Z,4.20
2019-02-06T13:27:14.103Z,4.30
2019-02-06T13:29:44.521Z,4.30
2019-02-06T13:32:14.890Z,4.30
2019-02-06T13:34:45.313Z,4.30
2019-02-06T13:37:15.786Z,4.40
2019-02-06T13:39:46.215Z,4.60
2019-02-06T13:42:16.625Z,4.60
2019-02-06T13:44:47.045Z,4.40
2019-02-06T13:47:17.502Z,4.40
2019-02-06T13:49:48.110Z,4.30
2019-02-06T13:52:18.750Z,4.30
2019-02-06T13:54:49.095Z,4.40
2019-02-06T13:57:19.502Z,4.50
2019-02-06T13:59:49.948Z,4.40
2019-02-06T14:02:21.611Z,4.20
2019-02-06T14:04:52.193Z,4.00
2019-02-06T14:07:22.851Z,3.80
2019-02-06T14:09:53.332Z,3.70
2019-02-06T14:12:24.830Z,3.70
2019-02-06T14:14:55.982Z,3.70
2019-02-06T14:17:26.459Z,3.80
2019-02-06T14:19:57.364Z,3.90
2019-02-06T14:22:28.271Z,3.90
2019-02-06T14:25:12.994Z,3.90
2019-02-06T14:28:14.656Z,3.90
2019-02-06T14:31:00.335Z,3.90
2019-02-06T14:33:58.429Z,3.90
2019-02-06T14:37:07.606Z,3.80
2019-02-06T14:39:51.043Z,3.70
2019-02-06T14:43:01.144Z,3.70
2019-02-06T14:45:50.678Z,3.70
2019-02-06T14:48:59.763Z,3.60
2019-02-06T14:52:01.750Z,3.40
2019-02-06T14:54:51.259Z,3.20
2019-02-06T14:57:54.522Z,3.00
2019-02-06T15:01:00.018Z,2.90
2019-02-06T15:03:54.666Z,2.90
2019-02-06T15:07:03.759Z,2.90
2019-02-06T15:10:07.109Z,3.00
2019-02-06T15:13:08.865Z,3.00
2019-02-06T15:16:11.389Z,2.90
2019-02-06T15:19:20.634Z,2.70
2019-02-06T15:22:18.596Z,2.50
2019-02-06T15:24:59.130Z,2.30
2019-02-06T15:28:00.632Z,2.10
2019-02-06T15:31:09.693Z,1.90
2019-02-06T15:34:06.806Z,1.60
2019-02-06T15:36:56.052Z,1.20
2019-02-06T15:40:00.521Z,1.00
2019-02-06T15:42:45.146Z,0.80
2019-02-06T15:45:38.766Z,0.60
2019-02-06T15:48:33.863Z,0.60
2019-02-06T15:51:43.025Z,0.50
2019-02-06T15:54:45.697Z,0.60
2019-02-06T15:57:41.242Z,0.70
2019-02-06T16:00:50.342Z,0.80
2019-02-06T16:04:14.048Z,0.80
2019-02-06T16:07:23.152Z,0.70
2019-02-06T16:10:24.014Z,0.70
2019-02-06T16:13:14.953Z,0.70
2019-02-06T16:16:12.521Z,0.60
2019-02-06T16:18:55.446Z,0.70
2019-02-06T16:21:52.646Z,0.60
2019-02-06T16:24:44.564Z,0.60
2019-02-06T16:27:53.686Z,0.50
2019-02-06T16:31:02.919Z,0.30
2019-02-06T16:33:59.504Z,0.20
2019-02-06T16:36:55.326Z,0.10
2019-02-06T16:39:47.714Z,0.30
2019-02-06T16:42:56.841Z,0.40
2019-02-06T16:45:51.382Z,0.50
2019-02-06T16:48:47.852Z,0.50
2019-02-06T16:51:35.503Z,0.60
2019-02-06T16:54:32.794Z,0.60
2019-02-06T16:57:36.362Z,0.80
2019-02-06T17:00:45.434Z,0.90
2019-02-06T17:03:54.454Z,1.00
2019-02-06T17:06:48.022Z,1.10
2019-02-06T17:09:37.903Z,1.00
2019-02-06T17:12:47.072Z,1.00
2019-02-06T17:15:48.514Z,1.00
2019-02-06T17:18:42.266Z,1.00
2019-02-06T17:21:30.111Z,0.90
2019-02-06T17:24:39.372Z,0.80
2019-02-06T17:27:37.533Z,0.80
2019-02-06T17:30:35.170Z,0.80
2019-02-06T17:33:47.049Z,0.60
2019-02-06T17:36:31.641Z,0.60
2019-02-06T17:39:24.522Z,0.60
2019-02-06T17:42:15.699Z,0.50
2019-02-06T17:45:17.745Z,0.40
2019-02-06T17:48:22.052Z,0.30
2019-02-06T17:51:34.105Z,0.20
2019-02-06T17:54:18.928Z,0.20
2019-02-06T17:56:49.388Z,0.10
2019-02-06T17:59:19.879Z,0.10
2019-02-06T18:01:53.413Z,0.00
2019-02-06T18:04:31.837Z,0.00
2019-02-06T18:07:02.172Z,0.00
2019-02-06T18:09:32.804Z,0.10
2019-02-06T18:12:03.429Z,0.20
2019-02-06T18:14:33.943Z,0.30
2019-02-06T18:17:04.897Z,0.40
2019-02-06T18:19:38.952Z,0.40
2019-02-06T18:22:09.907Z,0.40
2019-02-06T18:24:40.476Z,0.40
2019-02-06T18:27:11.342Z,0.40
2019-02-06T18:29:41.746Z,0.30
2019-02-06T18:32:13.351Z,0.30
2019-02-06T18:34:44.042Z,0.30
2019-02-06T18:37:14.461Z,0.20
2019-02-06T18:39:45.000Z,0.20
2019-02-06T18:42:15.603Z,0.20
2019-02-06T18:44:46.124Z,0.10
2019-02-06T18:47:17.792Z,0.10
2019-02-06T18:49:48.433Z,0.20
2019-02-06T18:52:20.388Z,0.20
2019-02-06T18:54:50.913Z,0.20
2019-02-06T18:57:21.296Z,0.20
2019-02-06T18:59:51.670Z,0.20
2019-02-06T19:02:22.186Z,0.20
2019-02-06T19:04:52.628Z,0.10
2019-02-06T19:07:23.758Z,0.10
2019-02-06T19:09:54.388Z,0.00
2019-02-06T19:12:24.802Z,0.00
2019-02-06T19:14:55.203Z,-0.10
2019-02-06T19:17:25.891Z,-0.20
2019-02-06T19:19:56.307Z,-0.20
2019-02-06T19:22:27.268Z,-0.30
2019-02-06T19:24:57.767Z,-0.40
2019-02-06T19:27:28.291Z,-0.50
2019-02-06T19:29:59.041Z,-0.60
2019-02-06T19:32:29.562Z,-0.80
2019-02-06T19:35:00.312Z,-1.00
2019-02-06T19:37:31.357Z,-1.30
2019-02-06T19:40:02.888Z,-1.50
2019-02-06T19:42:33.486Z,-1.60
2019-02-06T19:45:04.133Z,-1.60
2019-02-06T19:47:37.879Z,-1.60
2019-02-06T19:50:13.916Z,-1.60
2019-02-06T19:52:44.658Z,-1.70
2019-02-06T19:55:16.820Z,-1.80
2019-02-06T19:57:47.379Z,-1.80
2019-02-06T20:00:20.850Z,-1.80
2019-02-06T20:02:51.388Z,-1.90
2019-02-06T20:05:22.879Z,-1.90
2019-02-06T20:07:53.563Z,-1.70
2019-02-06T20:10:26.833Z,-1.70
2019-02-06T20:12:57.368Z,-1.60
2019-02-06T20:15:27.880Z,-1.60
2019-02-06T20:17:58.335Z,-1.60
2019-02-06T20:20:28.764Z,-1.60
2019-02-06T20:22:59.124Z,-1.60
2019-02-06T20:25:29.946Z,-1.70
2019-02-06T20:28:00.581Z,-1.80
2019-02-06T20:30:32.114Z,-1.90
2019-02-06T20:33:03.055Z,-1.90
2019-02-06T20:35:33.686Z,-3.10
2019-02-06T20:38:04.213Z,-1.90
2019-02-06T20:40:36.122Z,-2.00
2019-02-06T20:43:06.478Z,-2.00
2019-02-06T20:45:36.936Z,-2.20
2019-02-06T20:48:07.291Z,-2.30
2019-02-06T20:50:37.911Z,-2.40
2019-02-06T20:53:08.413Z,-2.50
2019-02-06T20:55:39.057Z,-2.50
2019-02-06T20:58:09.726Z,-2.60
2019-02-06T21:00:40.320Z,-2.60
2019-02-06T21:03:10.754Z,-2.60
2019-02-06T21:05:41.280Z,-2.60
2019-02-06T21:08:11.745Z,-2.70
2019-02-06T21:10:42.210Z,-2.70
2019-02-06T21:13:13.056Z,-2.80
2019-02-06T21:15:43.902Z,-2.80
2019-02-06T21:18:14.431Z,-2.70
2019-02-06T21:20:45.113Z,-2.80
2019-02-06T21:23:15.729Z,-2.90
2019-02-06T21:25:46.188Z,-2.90
2019-02-06T21:28:16.653Z,-3.00
2019-02-06T21:30:47.123Z,-3.00
2019-02-06T21:33:17.673Z,-3.10
2019-02-06T21:35:48.087Z,-3.10
2019-02-06T21:38:18.383Z,-3.10
2019-02-06T21:40:48.923Z,-3.10
2019-02-06T21:43:19.283Z,-3.10
2019-02-06T21:45:49.967Z,-3.10
2019-02-06T21:48:22.444Z,-3.10
2019-02-06T21:50:53.042Z,-3.10
2019-02-06T21:53:23.667Z,-3.10
2019-02-06T21:55:54.200Z,-3.10
2019-02-06T21:58:24.739Z,-3.10
2019-02-06T22:00:55.357Z,-3.10
2019-02-06T22:03:25.783Z,-3.00
2019-02-06T22:05:57.102Z,-2.90
2019-02-06T22:08:27.622Z,-2.80
2019-02-06T22:10:58.114Z,-2.80
2019-02-06T22:13:28.519Z,-2.70
2019-02-06T22:15:59.033Z,-2.70
2019-02-06T22:18:29.464Z,-2.60
2019-02-06T22:20:59.955Z,-2.60
2019-02-06T22:23:30.519Z,-2.60
2019-02-06T22:26:01.020Z,-2.70
2019-02-06T22:28:31.789Z,-2.70
2019-02-06T22:31:03.072Z,-2.70
2019-02-06T22:33:34.347Z,-2.60
2019-02-06T22:36:04.723Z,-2.60
2019-02-06T22:38:35.128Z,-2.50
2019-02-06T22:41:05.788Z,-2.40
2019-02-06T22:43:36.294Z,-2.40
2019-02-06T22:46:06.813Z,-2.30
2019-02-06T22:48:37.261Z,-2.30
2019-02-06T22:51:07.610Z,-2.20
2019-02-06T22:53:38.033Z,-2.10
2019-02-06T22:56:08.535Z,-2.10
2019-02-06T22:58:39.049Z,-2.20
2019-02-06T23:01:24.889Z,-2.20
2019-02-06T23:03:55.580Z,-2.10
2019-02-06T23:06:26.525Z,-2.20
2019-02-06T23:08:56.934Z,-2.20
2019-02-06T23:11:27.477Z,-2.20
2019-02-06T23:13:57.882Z,-2.20
2019-02-06T23:16:28.331Z,-2.10
2019-02-06T23:18:58.681Z,-2.00
2019-02-06T23:21:29.183Z,-1.90
2019-02-06T23:23:59.712Z,-1.80
2019-02-06T23:26:30.134Z,-1.80
2019-02-06T23:29:00.446Z,-1.70
2019-02-06T23:31:30.929Z,-1.60
2019-02-06T23:34:01.419Z,-1.50
2019-02-06T23:36:32.761Z,-1.40
2019-02-06T23:39:03.891Z,-1.40
2019-02-06T23:41:34.338Z,-1.40
2019-02-06T23:44:04.734Z,-1.30
2019-02-06T23:46:35.246Z,-1.30
2019-02-06T23:49:05.921Z,-1.30
2019-02-06T23:51:36.342Z,-1.30
2019-02-06T23:54:06.658Z,-1.40
2019-02-06T23:56:37.191Z,-1.40
2019-02-06T23:59:07.626Z,-1.50
